Time;durP1;ratioP1;P1;durP2;ratioP2;P2;SDS_P1;SDS_P2;PMS_P1;PMS_P2;Temp;Humidity;BMP_temperature;BMP_pressure;BME280_temperature;BME280_humidity;BME280_pressure;Samples;Min_cycle;Max_cycle;Signal;HPM_P1;HPM_P2
2020/12/16 00:00:31;;;;;;;34.72;21.20;;;;;;;6.36;70.73;100356.16;4194917;34;34028;-93
2020/12/16 00:03:04;;;;;;;40.05;23.60;;;;;;;6.17;71.61;100349.00;4205238;34;34825;-95
2020/12/16 00:05:37;;;;;;;36.25;21.27;;;;;;;6.53;70.30;100350.03;4196266;34;34254;-96
2020/12/16 00:08:21;;;;;;;35.15;20.35;;;;;;;6.65;69.89;100345.31;4204170;34;35459;-93
2020/12/16 00:10:53;;;;;;;39.75;22.42;;;;;;;6.57;70.11;100345.19;4214318;33;35174;-92
2020/12/16 00:13:26;;;;;;;36.90;21.23;;;;;;;6.38;70.71;100348.81;4230227;33;34873;-96
2020/12/16 00:15:59;;;;;;;36.45;20.12;;;;;;;6.36;70.57;100353.47;4209405;33;34435;-91
2020/12/16 00:18:31;;;;;;;38.38;20.45;;;;;;;6.04;71.86;100349.28;4209636;33;33934;-92
2020/12/16 00:21:05;;;;;;;37.45;22.37;;;;;;;6.12;71.76;100352.13;4207874;33;34304;-96
2020/12/16 00:23:50;;;;;;;34.45;19.75;;;;;;;6.16;71.63;100345.47;4249164;33;34143;-96
2020/12/16 00:26:23;;;;;;;34.08;20.08;;;;;;;6.10;71.76;100354.09;4217739;33;32940;-96
2020/12/16 00:29:12;;;;;;;35.53;20.70;;;;;;;6.05;71.94;100356.38;4181365;34;32908;-96
2020/12/16 00:31:45;;;;;;;36.63;21.30;;;;;;;6.27;71.04;100365.09;4216913;33;33142;-96
2020/12/16 00:34:30;;;;;;;32.30;20.98;;;;;;;6.09;71.99;100367.66;4189758;34;34680;-92
2020/12/16 00:37:02;;;;;;;33.40;19.45;;;;;;;6.34;70.85;100360.84;4180875;34;33716;-96
2020/12/16 00:39:48;;;;;;;35.10;20.55;;;;;;;6.60;70.30;100360.19;4195946;33;34647;-92
2020/12/16 00:42:20;;;;;;;32.00;19.90;;;;;;;6.39;70.90;100363.91;4230734;33;35745;-96
2020/12/16 00:45:09;;;;;;;36.20;21.40;;;;;;;6.58;70.12;100363.03;4205458;34;33647;-92
2020/12/16 00:47:41;;;;;;;39.15;20.20;;;;;;;6.30;71.10;100365.66;4194494;34;33348;-92
2020/12/16 00:50:15;;;;;;;32.60;19.33;;;;;;;6.63;70.22;100365.25;4207729;34;33641;-91
2020/12/16 00:52:47;;;;;;;35.78;19.50;;;;;;;6.15;71.92;100367.06;4215401;33;34639;-91
2020/12/16 00:55:20;;;;;;;29.20;17.60;;;;;;;6.42;70.92;100374.41;4206673;34;34693;-96
2020/12/16 00:57:54;;;;;;;33.28;20.27;;;;;;;6.66;70.08;100371.22;4208718;34;32852;-95
2020/12/16 01:00:43;;;;;;;33.35;18.90;;;;;;;6.50;70.57;100376.34;4211084;34;32671;-96
2020/12/16 01:03:27;;;;;;;31.37;18.92;;;;;;;6.45;70.53;100375.91;4176978;34;32302;-91
2020/12/16 01:06:01;;;;;;;34.25;20.00;;;;;;;6.49;70.44;100372.78;4176761;34;34642;-90
2020/12/16 01:08:34;;;;;;;34.78;20.30;;;;;;;6.72;69.89;100369.75;4178510;34;33380;-96
2020/12/16 01:11:18;;;;;;;35.10;18.10;;;;;;;6.63;70.08;100365.25;4190843;34;36788;-90
2020/12/16 01:13:50;;;;;;;35.00;19.83;;;;;;;6.82;69.34;100370.56;4206139;33;34611;-96
2020/12/16 01:17:10;;;;;;;30.25;18.37;;;;;;;6.59;70.08;100375.47;4219229;34;34397;-91
2020/12/16 01:19:43;;;;;;;34.28;19.35;;;;;;;6.38;70.79;100372.97;4208867;34;33234;-91
2020/12/16 01:22:15;;;;;;;35.28;20.42;;;;;;;6.34;70.98;100374.25;4206988;34;35677;-96
2020/12/16 01:25:02;;;;;;;38.30;19.37;;;;;;;6.55;70.08;100368.69;4213668;33;34143;-91
2020/12/16 01:27:35;;;;;;;30.75;20.27;;;;;;;6.63;69.87;100365.25;4255038;33;34469;-96
2020/12/16 01:30:33;;;;;;;36.35;19.77;;;;;;;6.51;70.13;100370.84;4211401;34;33522;-96
2020/12/16 01:33:20;;;;;;;31.55;19.33;;;;;;;6.28;70.97;100364.94;4169346;34;32857;-96
2020/12/16 01:36:06;;;;;;;30.83;17.95;;;;;;;6.67;69.88;100355.94;4192977;34;34286;-91
2020/12/16 01:38:39;;;;;;;32.95;18.85;;;;;;;6.68;69.57;100346.88;4184707;34;34749;-96
2020/12/16 01:41:25;;;;;;;35.13;19.62;;;;;;;6.39;70.63;100357.72;4168757;34;32316;-96
2020/12/16 01:44:19;;;;;;;37.63;20.00;;;;;;;6.12;71.98;100362.87;4179978;34;35363;-96
2020/12/16 01:47:08;;;;;;;37.90;19.37;;;;;;;6.32;71.42;100354.78;4191073;34;34732;-91
2020/12/16 01:49:41;;;;;;;33.33;20.55;;;;;;;6.78;70.12;100355.75;4195799;34;34160;-91
2020/12/16 01:52:23;;;;;;;31.15;20.40;;;;;;;6.66;70.35;100343.47;4195329;34;34152;-91
2020/12/16 01:54:57;;;;;;;33.08;19.45;;;;;;;6.68;70.11;100352.25;4183103;34;34222;-91
2020/12/16 01:57:35;;;;;;;35.80;19.48;;;;;;;6.98;69.18;100347.59;4211777;34;34713;-92
2020/12/16 02:00:10;;;;;;;32.97;19.33;;;;;;;6.71;69.88;100347.41;4196601;34;33812;-91
2020/12/16 02:02:45;;;;;;;34.35;19.83;;;;;;;6.55;70.30;100352.56;4206237;34;34434;-96
2020/12/16 02:05:30;;;;;;;30.17;19.52;;;;;;;6.80;69.66;100350.22;4187874;34;20153;-95
2020/12/16 02:08:16;;;;;;;30.37;19.35;;;;;;;6.78;69.75;100353.06;4187753;34;32700;-92
2020/12/16 02:10:48;;;;;;;29.92;18.10;;;;;;;6.88;69.46;100347.62;4191716;34;33723;-95
2020/12/16 02:13:32;;;;;;;33.72;19.50;;;;;;;6.51;70.65;100341.28;4182452;34;34500;-93
2020/12/16 02:16:06;;;;;;;33.03;19.40;;;;;;;6.32;71.38;100352.94;4176276;34;34126;-92
2020/12/16 02:18:39;;;;;;;33.45;19.25;;;;;;;6.35;71.30;100347.25;4179922;34;32770;-96
2020/12/16 02:21:27;;;;;;;32.70;19.58;;;;;;;6.65;70.31;100352.56;4216086;33;33030;-92
2020/12/16 02:24:05;;;;;;;29.75;18.12;;;;;;;6.19;71.89;100349.69;4220151;33;33238;-95
2020/12/16 02:26:52;;;;;;;30.80;17.73;;;;;;;6.56;70.78;100348.03;4189598;34;32941;-94
2020/12/16 02:29:37;;;;;;;34.65;19.90;;;;;;;6.48;71.07;100346.94;4213585;34;34881;-90
2020/12/16 02:32:13;;;;;;;30.80;18.33;;;;;;;6.73;70.35;100347.28;4207946;34;33619;-94
2020/12/16 02:34:46;;;;;;;30.70;18.25;;;;;;;6.65;70.40;100349.88;4194800;34;34844;-95
2020/12/16 02:37:31;;;;;;;26.58;17.27;;;;;;;6.84;70.01;100347.09;4190048;34;34200;-95
2020/12/16 02:40:16;;;;;;;33.20;18.52;;;;;;;6.85;69.99;100346.09;4189145;34;33956;-91
2020/12/16 02:42:48;;;;;;;32.70;18.67;;;;;;;6.60;70.81;100342.25;4201344;34;34634;-96
2020/12/16 02:45:54;;;;;;;30.42;17.70;;;;;;;6.38;71.64;100348.81;4062576;34;36309;-91
2020/12/16 02:48:26;;;;;;;27.62;16.95;;;;;;;6.80;70.24;100356.44;4179771;34;33908;-92
2020/12/16 02:51:00;;;;;;;30.67;17.48;;;;;;;6.46;71.23;100346.22;4191170;34;33349;-96
2020/12/16 02:53:45;;;;;;;30.20;19.10;;;;;;;6.81;70.22;100352.78;4222033;33;34069;-96
2020/12/16 02:56:50;;;;;;;26.70;16.83;;;;;;;6.79;70.04;100357.44;4216446;34;33526;-96
2020/12/16 02:59:57;;;;;;;29.92;17.60;;;;;;;6.90;70.02;100364.44;4181907;34;34113;-91
2020/12/16 03:02:31;;;;;;;32.70;18.12;;;;;;;7.10;69.08;100361.69;4167562;34;33995;-91
2020/12/16 03:05:04;;;;;;;32.97;18.50;;;;;;;6.59;70.52;100358.50;4167388;34;34422;-96
2020/12/16 03:07:56;;;;;;;37.55;18.77;;;;;;;6.91;69.84;100358.09;4149401;34;34825;-96
2020/12/16 03:10:41;;;;;;;38.20;19.40;;;;;;;6.94;69.61;100357.78;4198420;34;34208;-95
2020/12/16 03:13:28;;;;;;;34.75;17.87;;;;;;;6.99;69.21;100355.50;4195875;34;34438;-90
2020/12/16 03:16:02;;;;;;;31.70;17.70;;;;;;;6.76;70.19;100354.19;4209591;34;34506;-96
2020/12/16 03:18:48;;;;;;;38.38;18.87;;;;;;;6.83;70.10;100349.94;4182472;34;32401;-96
2020/12/16 03:21:32;;;;;;;35.25;18.48;;;;;;;6.73;70.45;100339.22;4187355;34;33114;-96
2020/12/16 03:24:19;;;;;;;33.90;17.45;;;;;;;6.56;70.79;100339.97;4177186;34;34795;-90
2020/12/16 03:26:53;;;;;;;31.10;17.15;;;;;;;6.52;71.00;100352.87;4170374;34;34012;-96
2020/12/16 03:29:49;;;;;;;33.95;18.30;;;;;;;6.88;69.82;100351.16;4129217;34;35418;-96
2020/12/16 03:32:25;;;;;;;37.10;18.62;;;;;;;7.01;69.50;100348.13;4206481;34;33608;-96
2020/12/16 03:35:12;;;;;;;34.60;18.20;;;;;;;7.15;69.15;100360.22;4212930;33;34299;-90
2020/12/16 03:37:45;;;;;;;31.85;16.55;;;;;;;7.01;69.80;100363.44;4233287;33;33900;-91
2020/12/16 03:40:19;;;;;;;29.90;15.68;;;;;;;7.15;69.16;100367.44;4209630;33;34872;-96
2020/12/16 03:43:04;;;;;;;27.60;14.68;;;;;;;6.96;69.83;100366.56;4192074;34;33413;-95
2020/12/16 03:46:12;;;;;;;28.75;15.88;;;;;;;7.03;69.53;100373.00;4199307;34;34330;-89
2020/12/16 03:48:47;;;;;;;25.12;14.65;;;;;;;6.99;69.44;100371.63;4201320;34;34393;-95
2020/12/16 03:51:33;;;;;;;29.12;15.52;;;;;;;7.27;68.40;100370.78;4224809;33;33652;-96
2020/12/16 03:54:20;;;;;;;30.05;14.75;;;;;;;7.21;68.50;100373.06;4170860;34;34485;-96
2020/12/16 03:57:07;;;;;;;30.48;14.52;;;;;;;6.79;69.58;100370.88;4205188;34;33425;-92
2020/12/16 03:59:40;;;;;;;29.70;14.38;;;;;;;6.85;69.52;100370.25;4220718;33;34255;-91
2020/12/16 04:02:12;;;;;;;27.45;14.10;;;;;;;6.68;70.29;100373.75;4219858;33;34518;-91
2020/12/16 04:04:45;;;;;;;30.35;15.63;;;;;;;6.66;70.64;100371.22;4221787;33;34669;-91
2020/12/16 04:07:18;;;;;;;28.35;14.48;;;;;;;6.93;69.75;100368.69;4210723;33;34512;-96
2020/12/16 04:10:11;;;;;;;29.75;15.60;;;;;;;6.86;70.29;100365.75;4188853;33;34269;-90
2020/12/16 04:12:43;;;;;;;30.50;14.93;;;;;;;7.13;69.27;100372.16;4219982;33;33516;-90
2020/12/16 04:15:15;;;;;;;32.75;16.67;;;;;;;7.20;69.01;100366.00;4206864;33;35004;-96
2020/12/16 04:18:00;;;;;;;27.30;14.70;;;;;;;6.85;69.49;100364.06;4181597;34;33961;-90
2020/12/16 04:20:33;;;;;;;28.35;14.55;;;;;;;6.65;70.10;100366.00;4218875;33;33984;-96
2020/12/16 04:23:27;;;;;;;28.87;15.25;;;;;;;6.63;70.30;100360.75;4202914;34;34143;-96
2020/12/16 04:26:24;;;;;;;27.52;14.93;;;;;;;6.89;69.65;100366.28;4210895;33;34491;-96
2020/12/16 04:29:20;;;;;;;27.00;12.80;;;;;;;6.71;70.23;100374.28;4171131;34;33451;-90
2020/12/16 04:31:54;;;;;;;26.85;14.52;;;;;;;6.95;69.08;100380.16;4228642;28;32418;-96
2020/12/16 04:37:50;;;;;;;23.33;12.57;;;;;;;6.70;69.92;100371.75;4441646;28;33486;-90
2020/12/16 04:40:25;;;;;;;26.27;13.77;;;;;;;6.92;69.66;100375.91;4341305;28;32019;-89
2020/12/16 04:43:11;;;;;;;26.35;12.90;;;;;;;7.00;69.17;100380.53;4275708;28;34503;31
2020/12/16 04:45:45;;;;;;;24.42;14.23;;;;;;;6.77;69.74;100367.50;4482137;28;32598;-89
2020/12/16 04:48:17;;;;;;;28.80;14.00;;;;;;;6.78;69.89;100365.63;4218383;28;34492;-88
2020/12/16 04:50:52;;;;;;;21.62;12.37;;;;;;;6.43;70.37;100372.53;4357867;28;34919;-89
2020/12/16 04:53:24;;;;;;;24.35;13.38;;;;;;;6.75;69.64;100363.25;4297000;28;33631;-88
2020/12/16 04:56:23;;;;;;;27.62;14.25;;;;;;;6.73;70.07;100363.41;4270473;28;31571;-90
2020/12/16 04:59:10;;;;;;;27.95;15.43;;;;;;;6.65;70.55;100363.28;4576141;28;32907;31
2020/12/16 05:02:02;;;;;;;23.40;14.38;;;;;;;6.60;70.63;100362.87;4321696;28;34287;31
2020/12/16 05:04:39;;;;;;;29.15;14.25;;;;;;;6.57;70.57;100361.31;4515109;28;33120;-90
2020/12/16 05:07:37;;;;;;;26.05;14.80;;;;;;;6.52;70.99;100364.44;4274312;28;34251;-90
2020/12/16 05:10:32;;;;;;;30.17;14.23;;;;;;;6.71;70.42;100370.78;4307588;28;33175;31
2020/12/16 05:13:18;;;;;;;25.95;14.07;;;;;;;6.67;70.48;100362.13;4286892;28;33550;31
2020/12/16 05:15:50;;;;;;;28.25;14.00;;;;;;;6.77;70.19;100366.66;4177233;34;36822;-89
2020/12/16 05:18:25;;;;;;;25.12;12.75;;;;;;;6.59;70.87;100370.09;4283650;28;34301;-90
2020/12/16 05:21:00;;;;;;;25.42;14.52;;;;;;;6.68;70.57;100365.69;4327039;28;32607;-88
2020/12/16 05:23:34;;;;;;;27.58;13.82;;;;;;;6.47;71.10;100374.78;4382215;28;33852;-88
2020/12/16 05:26:08;;;;;;;31.45;15.88;;;;;;;6.79;70.24;100373.53;4536391;28;33615;-88
2020/12/16 05:28:46;;;;;;;26.75;13.90;;;;;;;6.96;69.29;100382.69;4232455;28;33192;-89
2020/12/16 05:31:20;;;;;;;29.97;16.53;;;;;;;7.00;69.51;100385.91;4283520;28;35359;-88
2020/12/16 05:34:08;;;;;;;29.20;14.32;;;;;;;6.72;70.23;100386.75;4223813;33;34828;-96
2020/12/16 05:36:50;;;;;;;33.60;15.93;;;;;;;6.71;70.14;100376.13;4292574;28;34890;-88
2020/12/16 05:39:22;;;;;;;27.10;13.57;;;;;;;6.84;70.10;100384.72;4182255;34;31679;-89
2020/12/16 05:41:55;;;;;;;29.75;15.85;;;;;;;6.80;70.18;100377.94;4169309;34;33686;-88
2020/12/16 05:44:27;;;;;;;27.50;14.65;;;;;;;6.82;70.13;100375.09;4169216;34;33828;-89
2020/12/16 05:47:07;;;;;;;41.65;15.10;;;;;;;6.82;70.26;100375.09;4171923;34;33873;-89
2020/12/16 05:49:41;;;;;;;32.70;14.82;;;;;;;6.81;70.09;100366.22;4166518;34;34128;-96
2020/12/16 05:52:27;;;;;;;28.45;14.70;;;;;;;6.84;70.22;100367.72;4179858;34;32702;-96
2020/12/16 05:55:00;;;;;;;29.52;16.25;;;;;;;6.72;70.39;100359.00;4187040;34;33734;-89
2020/12/16 05:57:32;;;;;;;33.83;16.98;;;;;;;6.93;69.78;100363.31;4196324;34;32443;-91
2020/12/16 06:00:12;;;;;;;35.10;15.75;;;;;;;6.32;71.56;100360.97;4217415;34;33199;-90
2020/12/16 06:02:45;;;;;;;39.25;14.68;;;;;;;6.32;71.69;100350.25;4206631;34;33759;-90
2020/12/16 06:05:18;;;;;;;34.22;17.27;;;;;;;6.60;70.76;100355.69;4197980;34;35024;-96
2020/12/16 06:08:08;;;;;;;33.80;17.02;;;;;;;6.57;70.86;100355.94;4355064;28;34019;-96
2020/12/16 06:10:45;;;;;;;30.05;16.83;;;;;;;6.66;70.46;100363.16;4197832;33;34316;-96
2020/12/16 06:13:36;;;;;;;30.75;15.38;;;;;;;6.63;70.68;100368.81;4264467;28;33849;-91
2020/12/16 06:16:08;;;;;;;32.78;16.80;;;;;;;6.69;70.38;100370.03;4299455;28;34186;-90
2020/12/16 06:18:45;;;;;;;31.00;16.90;;;;;;;6.81;70.13;100368.03;4221900;33;33644;-90
2020/12/16 06:21:18;;;;;;;32.05;17.27;;;;;;;6.45;70.98;100368.72;4220906;33;33535;-90
2020/12/16 06:23:52;;;;;;;31.85;15.95;;;;;;;6.61;70.62;100368.09;4231756;33;34309;-93
2020/12/16 06:26:26;;;;;;;35.28;17.17;;;;;;;6.65;70.53;100371.34;4202831;33;34731;-93
2020/12/16 06:29:14;;;;;;;35.28;16.90;;;;;;;6.40;71.42;100364.78;4159613;34;34402;-89
2020/12/16 06:31:46;;;;;;;40.67;18.92;;;;;;;5.97;73.14;100369.63;4195951;34;33283;-91
2020/12/16 06:34:34;;;;;;;37.33;19.45;;;;;;;6.22;72.40;100372.72;4202576;34;34074;-89
2020/12/16 06:37:14;;;;;;;35.78;18.73;;;;;;;6.00;73.21;100372.03;4216921;33;33041;-90
2020/12/16 06:39:47;;;;;;;38.80;19.33;;;;;;;6.35;72.28;100370.59;4216178;34;33614;-93
2020/12/16 06:42:35;;;;;;;39.15;19.75;;;;;;;6.19;72.85;100379.22;4194558;34;33635;-94
2020/12/16 06:45:21;;;;;;;35.42;18.08;;;;;;;6.26;72.82;100382.19;4195209;34;34592;-96
2020/12/16 06:47:53;;;;;;;36.80;18.95;;;;;;;6.29;72.46;100384.59;4201617;34;34103;-96
2020/12/16 06:51:20;;;;;;;39.63;18.30;;;;;;;6.45;71.89;100384.84;4178998;34;35010;-96
2020/12/16 06:54:13;;;;;;;;;;;;;;;6.93;70.23;100388.38;4175176;34;34180;-96
2020/12/16 06:57:19;;;;;;;42.20;19.20;;;;;;;6.95;70.30;100401.66;4199726;34;34265;-96
2020/12/16 06:59:53;;;;;;;38.70;18.62;;;;;;;6.49;71.92;100413.06;4205252;34;34286;-96
2020/12/16 07:02:45;;;;;;;37.08;19.02;;;;;;;6.46;71.64;100410.69;4197724;34;33696;-93
2020/12/16 07:05:45;;;;;;;34.28;18.27;;;;;;;6.46;71.54;100418.75;4177488;34;32255;-96
2020/12/16 07:08:31;;;;;;;43.15;19.83;;;;;;;6.66;71.12;100416.87;4168997;34;32967;-96
2020/12/16 07:11:04;;;;;;;36.60;18.25;;;;;;;6.55;71.42;100411.66;4184947;34;32688;-96
2020/12/16 07:14:09;;;;;;;38.95;18.83;;;;;;;6.54;71.58;100409.97;4183613;34;34324;-96
2020/12/16 07:17:31;;;;;;;37.08;17.95;;;;;;;6.62;71.46;100411.94;4144787;34;35289;-96
2020/12/16 07:20:31;;;;;;;32.47;17.52;;;;;;;6.56;71.55;100412.50;4179331;34;34346;-94
2020/12/16 07:23:03;;;;;;;38.15;19.58;;;;;;;6.78;70.61;100416.69;4187168;34;32848;-96
2020/12/16 07:25:48;;;;;;;40.25;18.17;;;;;;;6.99;69.99;100413.78;4198471;34;34729;-96
2020/12/16 07:28:22;;;;;;;30.88;17.10;;;;;;;6.92;70.06;100415.38;4282741;28;34536;-96
2020/12/16 07:34:52;;;;;;;32.72;17.42;;;;;;;7.02;70.04;100408.09;4468360;28;20751;-96
2020/12/16 07:37:50;;;;;;;33.28;16.20;;;;;;;6.66;71.08;100414.19;4384765;28;33503;-95
2020/12/16 07:40:39;;;;;;;29.50;16.52;;;;;;;6.69;70.82;100418.41;4156150;34;33221;-96
2020/12/16 07:43:24;;;;;;;;;;;;;;;;;;;;;
2020/12/16 07:47:12;;;;;;;26.55;15.30;;;;;;;6.82;70.59;100421.62;4142941;29;34768;-89
2020/12/16 07:50:45;;;;;;;31.35;16.87;;;;;;;6.90;70.16;100423.56;4154529;34;34032;-89
2020/12/16 07:53:45;;;;;;;28.93;15.00;;;;;;;7.17;69.41;100429.97;4182868;34;35089;-89
2020/12/16 07:56:19;;;;;;;29.15;14.40;;;;;;;6.71;70.34;100428.03;4200386;34;33364;-89
2020/12/16 07:58:51;;;;;;;22.10;12.95;;;;;;;6.91;69.93;100432.50;4192551;34;34678;-89
2020/12/16 08:01:28;;;;;;;24.08;13.65;;;;;;;6.91;69.96;100436.03;4190992;33;35259;-89
2020/12/16 08:04:00;;;;;;;28.08;14.60;;;;;;;6.76;70.52;100429.44;4201516;34;34232;-89
2020/12/16 08:06:32;;;;;;;31.35;15.15;;;;;;;6.75;70.59;100428.59;4210034;33;33527;-89
2020/12/16 08:09:08;;;;;;;33.45;13.10;;;;;;;6.62;71.31;100422.69;4189445;34;35661;-91
2020/12/16 08:11:38;;;;;;;26.12;13.95;;;;;;;6.56;71.54;100436.66;4214564;33;33435;-87
2020/12/16 08:14:34;;;;;;;19.92;11.75;;;;;;;6.76;70.50;100429.44;4187783;34;35156;-87
2020/12/16 08:17:10;;;;;;;25.50;12.18;;;;;;;6.83;70.45;100433.22;4194181;34;33971;-86
2020/12/16 08:19:42;;;;;;;22.08;12.10;;;;;;;6.46;71.66;100437.53;4194689;34;35651;-86
2020/12/16 08:22:17;;;;;;;20.88;12.73;;;;;;;6.82;70.60;100437.75;4194661;34;35393;-86
2020/12/16 08:24:59;;;;;;;26.55;12.50;;;;;;;6.82;70.72;100436.91;4202662;34;33289;-86
2020/12/16 08:27:31;;;;;;;28.10;13.25;;;;;;;6.59;71.32;100439.94;4186797;34;34875;-86
2020/12/16 08:30:07;;;;;;;23.23;12.15;;;;;;;6.43;71.96;100440.50;4210144;33;33449;-87
2020/12/16 08:33:15;;;;;;;21.33;12.13;;;;;;;6.34;72.01;100438.69;4201279;34;33888;-87
2020/12/16 08:35:51;;;;;;;25.58;11.60;;;;;;;6.17;72.59;100446.47;4198083;33;34450;-88
2020/12/16 08:38:31;;;;;;;24.42;10.35;;;;;;;5.86;73.59;100447.56;4209557;34;36096;-87
2020/12/16 08:41:10;;;;;;;23.33;11.52;;;;;;;6.04;73.00;100451.28;4210282;33;34740;-87
2020/12/16 08:43:42;;;;;;;18.90;12.05;;;;;;;6.03;73.41;100449.56;4192616;34;34483;-87
2020/12/16 08:46:17;;;;;;;21.10;11.15;;;;;;;6.09;73.17;100459.78;4200637;34;33099;-87
2020/12/16 08:48:55;;;;;;;22.58;10.77;;;;;;;5.96;73.63;100460.00;4193367;34;32372;-86
2020/12/16 08:51:33;;;;;;;17.98;10.52;;;;;;;6.05;73.09;100463.72;4202844;34;36633;-88
2020/12/16 08:54:27;;;;;;;21.92;12.05;;;;;;;6.05;73.13;100461.03;4314703;28;33344;31
2020/12/16 08:57:34;;;;;;;23.50;12.25;;;;;;;5.82;73.54;100458.59;4763090;28;21358;-94
2020/12/16 09:00:58;;;;;;;27.75;12.35;;;;;;;5.69;73.84;100457.13;2175226;29;20255;-92
2020/12/16 09:04:03;;;;;;;23.45;12.40;;;;;;;6.29;72.62;100449.03;2069222;29;31843;-95
2020/12/16 09:10:21;;;;;;;27.92;14.65;;;;;;;6.40;71.49;100461.44;4222860;29;33172;-85
2020/12/16 09:13:18;;;;;;;26.65;13.23;;;;;;;6.30;72.17;100462.31;4173275;34;33853;-86
2020/12/16 09:15:56;;;;;;;27.45;13.38;;;;;;;6.47;71.83;100463.41;4188125;34;33341;-86
2020/12/16 09:18:50;;;;;;;23.73;12.95;;;;;;;6.58;71.41;100461.56;4170776;34;35373;-85
2020/12/16 09:21:33;;;;;;;24.17;12.68;;;;;;;6.14;72.30;100468.22;4198202;33;33130;-86
2020/12/16 09:24:06;;;;;;;27.48;14.43;;;;;;;4.78;77.44;100477.53;4226987;33;34626;-85
2020/12/16 09:26:43;;;;;;;36.53;13.70;;;;;;;5.30;75.94;100458.72;4216567;33;34579;-85
2020/12/16 09:29:21;;;;;;;31.77;14.90;;;;;;;5.75;74.03;100460.13;4225662;33;34578;-85
2020/12/16 09:32:07;;;;;;;23.80;13.85;;;;;;;5.87;73.67;100465.34;4242882;33;33643;-86
2020/12/16 09:34:41;;;;;;;29.15;15.00;;;;;;;6.00;72.77;100457.91;4206688;33;35629;-85
2020/12/16 09:37:13;;;;;;;30.08;14.55;;;;;;;6.33;71.98;100455.78;4218893;33;34691;-85
2020/12/16 12:08:57;;;;;;;;;;;;;;;;;;;;;
2020/12/16 16:38:18;;;;;;;;;;;;;;;;;;;;;
2020/12/16 16:52:13;;;;;;;;;;;;;;;;;;;;;
2020/12/16 16:57:11;;;;;;;;;;;;;;;;;;;;;
2020/12/16 17:30:34;;;;;;;60.03;26.15;;;;;;;6.54;70.09;100483.34;4122936;34;34485;-92
